createdAt,value
2023-03-22T00:00:37.262Z,13.03
2023-03-22T00:03:10.304Z,13.33
2023-03-22T00:05:41.760Z,15.57
2023-03-22T00:08:13.673Z,13.27
2023-03-22T00:10:47.755Z,15.60
2023-03-22T00:13:19.145Z,13.13
2023-03-22T00:15:50.651Z,12.20
2023-03-22T00:18:21.936Z,9.83
2023-03-22T00:20:55.277Z,13.93
2023-03-22T00:23:28.276Z,11.67
2023-03-22T00:25:59.821Z,16.57
2023-03-22T00:28:31.285Z,10.97
2023-03-22T00:31:04.810Z,17.20
2023-03-22T00:33:37.117Z,12.03
2023-03-22T00:36:11.602Z,14.43
2023-03-22T00:38:44.230Z,12.30
2023-03-22T00:41:17.787Z,13.23
2023-03-22T00:43:50.711Z,14.87
2023-03-22T00:46:22.445Z,12.00
2023-03-22T00:48:54.072Z,17.47
2023-03-22T00:51:25.397Z,13.77
2023-03-22T00:53:56.781Z,13.77
2023-03-22T00:56:28.781Z,12.23
2023-03-22T00:59:00.293Z,12.43
2023-03-22T01:01:32.043Z,16.37
2023-03-22T01:04:05.051Z,12.67
2023-03-22T01:06:36.356Z,15.43
2023-03-22T01:09:07.634Z,15.73
2023-03-22T01:11:38.958Z,15.97
2023-03-22T01:14:10.434Z,11.57
2023-03-22T01:16:41.854Z,19.30
2023-03-22T01:19:13.360Z,12.67
2023-03-22T01:21:44.643Z,14.60
2023-03-22T01:24:16.682Z,18.17
2023-03-22T01:26:48.450Z,19.33
2023-03-22T01:29:20.416Z,14.73
2023-03-22T01:31:52.770Z,14.97
2023-03-22T01:34:24.264Z,11.10
2023-03-22T01:36:55.826Z,14.60
2023-03-22T01:39:27.487Z,12.27
2023-03-22T01:41:59.122Z,13.23
2023-03-22T01:44:31.455Z,12.33
2023-03-22T01:47:02.920Z,16.60
2023-03-22T01:49:35.664Z,14.70
2023-03-22T01:52:14.142Z,15.70
2023-03-22T01:54:50.442Z,18.33
2023-03-22T01:57:22.179Z,12.67
2023-03-22T01:59:53.534Z,13.77
2023-03-22T02:02:25.400Z,11.53
2023-03-22T02:04:57.969Z,12.83
2023-03-22T02:07:31.690Z,13.47
2023-03-22T02:10:03.594Z,12.57
2023-03-22T02:13:15.352Z,13.37
2023-03-22T02:16:00.861Z,9.97
2023-03-22T02:18:57.049Z,13.93
2023-03-22T02:22:06.512Z,13.40
2023-03-22T02:24:58.591Z,13.80
2023-03-22T02:27:46.916Z,11.07
2023-03-22T02:30:53.194Z,14.10
2023-03-22T02:33:49.262Z,13.23
2023-03-22T02:36:48.385Z,12.00
2023-03-22T02:39:30.810Z,11.90
2023-03-22T02:42:23.863Z,10.10
2023-03-22T02:45:22.013Z,11.70
2023-03-22T02:48:07.216Z,13.13
2023-03-22T02:50:48.995Z,12.43
2023-03-22T02:53:45.275Z,13.27
2023-03-22T02:56:25.733Z,12.18
2023-03-22T02:59:04.267Z,12.97
2023-03-22T03:01:40.864Z,11.43
2023-03-22T03:04:26.761Z,12.53
2023-03-22T03:07:05.671Z,12.00
2023-03-22T03:09:40.408Z,13.67
2023-03-22T03:12:18.990Z,12.27
2023-03-22T03:14:50.649Z,12.37
2023-03-22T03:17:28.202Z,11.67
2023-03-22T03:20:32.092Z,14.00
2023-03-22T03:23:24.468Z,13.87
2023-03-22T03:26:13.540Z,15.13
2023-03-22T03:29:09.782Z,12.07
2023-03-22T03:31:56.118Z,13.73
2023-03-22T03:34:39.768Z,12.05
2023-03-22T03:37:19.032Z,13.17
2023-03-22T03:39:56.022Z,13.27
2023-03-22T03:42:29.813Z,11.90
2023-03-22T03:45:01.820Z,9.67
2023-03-22T03:47:34.646Z,10.70
2023-03-22T03:50:07.547Z,12.73
2023-03-22T03:52:38.912Z,11.57
2023-03-22T03:55:10.535Z,10.90
2023-03-22T03:57:41.900Z,19.37
2023-03-22T04:00:17.182Z,10.00
2023-03-22T04:02:48.483Z,11.77
2023-03-22T04:05:19.818Z,10.03
2023-03-22T04:07:51.159Z,13.03
2023-03-22T04:10:22.559Z,11.53
2023-03-22T04:12:53.867Z,12.37
2023-03-22T04:15:25.185Z,13.00
2023-03-22T04:17:56.703Z,12.83
2023-03-22T04:20:29.750Z,11.00
2023-03-22T04:23:01.114Z,11.90
2023-03-22T04:25:33.854Z,15.17
2023-03-22T04:28:05.531Z,9.37
2023-03-22T04:30:37.110Z,12.03
2023-03-22T04:33:08.667Z,8.63
2023-03-22T04:35:39.939Z,10.47
2023-03-22T04:38:11.995Z,9.37
2023-03-22T04:40:46.591Z,9.20
2023-03-22T04:43:19.140Z,11.43
2023-03-22T04:45:50.617Z,11.93
2023-03-22T04:48:23.662Z,13.93
2023-03-22T04:50:55.466Z,11.40
2023-03-22T04:53:27.553Z,11.10
2023-03-22T04:55:59.381Z,13.03
2023-03-22T04:58:30.891Z,9.50
2023-03-22T05:01:03.376Z,13.97
2023-03-22T05:03:36.600Z,11.27
2023-03-22T05:06:09.113Z,10.30
2023-03-22T05:08:40.554Z,11.37
2023-03-22T05:11:14.833Z,9.83
2023-03-22T05:13:46.204Z,14.50
2023-03-22T05:16:17.625Z,9.67
2023-03-22T05:18:49.856Z,9.57
2023-03-22T05:21:28.356Z,13.57
2023-03-22T05:23:59.702Z,13.43
2023-03-22T05:26:31.005Z,10.90
2023-03-22T05:29:02.321Z,13.17
2023-03-22T05:31:34.515Z,12.13
2023-03-22T05:34:05.877Z,10.03
2023-03-22T05:36:37.283Z,10.57
2023-03-22T05:39:09.166Z,9.47
2023-03-22T05:41:40.589Z,11.83
2023-03-22T05:44:11.949Z,10.30
2023-03-22T05:46:43.358Z,9.97
2023-03-22T05:49:14.703Z,10.47
2023-03-22T05:51:47.020Z,11.80
2023-03-22T05:54:18.488Z,11.53
2023-03-22T05:56:49.784Z,10.93
2023-03-22T05:59:21.499Z,13.47
2023-03-22T06:01:52.850Z,13.13
2023-03-22T06:04:24.160Z,14.70
2023-03-22T06:06:55.518Z,9.80
2023-03-22T06:09:26.990Z,11.40
2023-03-22T06:11:58.781Z,12.00
2023-03-22T06:14:30.350Z,10.83
2023-03-22T06:17:01.982Z,11.93
2023-03-22T06:19:33.332Z,11.53
2023-03-22T06:22:04.651Z,11.63
2023-03-22T06:24:36.400Z,11.63
2023-03-22T06:27:09.129Z,10.03
2023-03-22T06:29:40.467Z,11.70
2023-03-22T06:32:11.868Z,9.07
2023-03-22T06:34:43.945Z,9.83
2023-03-22T06:37:16.306Z,10.23
2023-03-22T06:39:47.798Z,9.33
2023-03-22T06:42:19.179Z,8.90
2023-03-22T06:44:50.488Z,8.03
2023-03-22T06:47:21.778Z,8.30
2023-03-22T06:49:53.467Z,10.53
2023-03-22T06:52:24.832Z,11.27
2023-03-22T06:54:56.883Z,14.40
2023-03-22T06:57:28.346Z,11.43
2023-03-22T07:00:00.007Z,12.23
2023-03-22T07:02:31.388Z,11.27
2023-03-22T07:05:02.740Z,8.07
2023-03-22T07:07:34.035Z,11.70
2023-03-22T07:10:07.828Z,12.43
2023-03-22T07:12:39.196Z,10.73
2023-03-22T07:15:11.018Z,9.17
2023-03-22T07:17:42.282Z,8.93
2023-03-22T07:20:13.665Z,16.37
2023-03-22T07:22:45.869Z,14.10
2023-03-22T07:25:17.351Z,11.57
2023-03-22T07:27:48.677Z,14.33
2023-03-22T07:30:20.059Z,14.50
2023-03-22T07:32:51.460Z,11.07
2023-03-22T07:35:24.558Z,9.97
2023-03-22T07:37:58.473Z,11.33
2023-03-22T07:40:30.432Z,13.60
2023-03-22T07:43:01.709Z,11.77
2023-03-22T07:45:33.105Z,11.53
2023-03-22T07:48:04.593Z,10.73
2023-03-22T07:50:35.990Z,14.53
2023-03-22T07:53:07.343Z,13.57
2023-03-22T07:55:39.881Z,11.37
2023-03-22T07:58:11.241Z,12.73
2023-03-22T08:00:42.555Z,12.43
2023-03-22T08:03:13.916Z,13.60
2023-03-22T08:05:45.564Z,15.27
2023-03-22T08:08:17.268Z,11.20
2023-03-22T08:10:50.253Z,10.80
2023-03-22T08:13:21.621Z,14.90
2023-03-22T08:15:53.011Z,12.77
2023-03-22T08:18:24.651Z,11.97
2023-03-22T08:20:58.129Z,10.30
2023-03-22T08:23:40.961Z,16.03
2023-03-22T08:26:15.956Z,10.67
2023-03-22T08:28:47.275Z,11.03
2023-03-22T08:31:20.053Z,13.07
2023-03-22T08:33:51.961Z,9.93
2023-03-22T08:36:23.705Z,12.30
2023-03-22T08:38:55.094Z,11.47
2023-03-22T08:41:26.404Z,10.33
2023-03-22T08:43:58.124Z,14.23
2023-03-22T08:46:29.535Z,8.77
2023-03-22T08:49:02.292Z,11.53
2023-03-22T08:51:33.647Z,14.40
2023-03-22T08:54:05.285Z,10.27
2023-03-22T08:56:38.048Z,8.97
2023-03-22T08:59:09.772Z,11.33
2023-03-22T09:01:41.296Z,8.83
2023-03-22T09:04:12.773Z,11.47
2023-03-22T09:06:45.390Z,11.43
2023-03-22T09:09:16.718Z,9.30
2023-03-22T09:11:47.999Z,10.03
2023-03-22T09:14:19.314Z,9.50
2023-03-22T09:16:51.666Z,9.13
2023-03-22T09:19:23.048Z,7.73
2023-03-22T09:21:54.459Z,7.97
2023-03-22T09:24:25.754Z,8.47
2023-03-22T09:26:58.528Z,9.17
2023-03-22T09:29:29.840Z,7.77
2023-03-22T09:32:01.273Z,9.40
2023-03-22T09:34:32.681Z,7.17
2023-03-22T09:37:04.248Z,7.43
2023-03-22T09:39:38.357Z,6.80
2023-03-22T09:42:31.365Z,6.30
2023-03-22T09:45:06.721Z,7.30
2023-03-22T09:47:45.819Z,9.70
2023-03-22T09:50:31.122Z,5.72
2023-03-22T09:53:02.407Z,8.30
2023-03-22T09:55:39.651Z,5.78
2023-03-22T09:58:21.975Z,5.43
2023-03-22T10:01:21.275Z,7.05
2023-03-22T10:04:09.359Z,9.68
2023-03-22T10:06:46.537Z,3.80
2023-03-22T10:09:41.435Z,10.68
2023-03-22T10:12:24.791Z,6.72
2023-03-22T10:15:05.578Z,5.93
2023-03-22T10:17:39.681Z,7.45
2023-03-22T10:20:27.583Z,4.78
2023-03-22T10:23:02.789Z,4.30
2023-03-22T10:25:38.347Z,6.05
2023-03-22T10:28:24.836Z,6.20
2023-03-22T10:33:39.196Z,8.50
2023-03-22T10:36:14.741Z,4.13
2023-03-22T10:38:50.375Z,5.10
2023-03-22T10:41:24.597Z,3.45
2023-03-22T10:44:00.430Z,5.47
2023-03-22T10:46:39.151Z,6.55
2023-03-22T10:49:23.009Z,5.53
2023-03-22T10:51:57.964Z,3.85
2023-03-22T10:54:30.257Z,4.68
2023-03-22T10:57:01.619Z,5.13
2023-03-22T10:59:47.234Z,3.38
2023-03-22T11:02:24.843Z,4.40
2023-03-22T11:05:03.541Z,4.05
2023-03-22T11:07:42.740Z,4.88
2023-03-22T11:10:23.316Z,6.53
2023-03-22T11:13:06.704Z,6.60
2023-03-22T11:15:51.450Z,5.95
2023-03-22T11:18:24.811Z,4.20
2023-03-22T11:21:04.591Z,3.75
2023-03-22T11:23:38.610Z,3.00
2023-03-22T11:26:12.986Z,3.92
2023-03-22T11:28:50.710Z,3.83
2023-03-22T11:31:22.129Z,5.57
2023-03-22T11:33:59.564Z,5.60
2023-03-22T11:36:31.000Z,4.70
2023-03-22T11:39:08.027Z,7.72
2023-03-22T11:41:40.616Z,7.25
2023-03-22T11:44:15.799Z,5.43
2023-03-22T11:47:00.799Z,5.00
2023-03-22T11:49:48.708Z,4.25
2023-03-22T11:52:27.415Z,5.75
2023-03-22T11:55:00.875Z,4.30
2023-03-22T11:57:34.409Z,4.88
2023-03-22T12:00:21.377Z,4.93
2023-03-22T12:03:01.355Z,5.82
2023-03-22T12:05:37.108Z,4.65
2023-03-22T12:08:18.837Z,6.45
2023-03-22T12:10:55.733Z,4.32
2023-03-22T12:13:37.486Z,5.10
2023-03-22T12:16:12.683Z,5.25
2023-03-22T12:19:13.084Z,6.43
2023-03-22T12:21:46.831Z,5.53
2023-03-22T12:24:32.047Z,8.50
2023-03-22T12:27:20.710Z,7.40
2023-03-22T12:29:58.952Z,7.40
2023-03-22T12:32:45.140Z,8.13
2023-03-22T12:35:27.953Z,5.20
2023-03-22T12:38:07.770Z,7.47
2023-03-22T12:40:41.379Z,5.13
2023-03-22T12:43:38.002Z,7.75
2023-03-22T12:46:18.238Z,7.03
2023-03-22T12:48:55.850Z,7.43
2023-03-22T12:51:27.306Z,5.82
2023-03-22T12:54:00.304Z,9.75
2023-03-22T12:56:40.273Z,5.97
2023-03-22T12:59:22.573Z,7.33
2023-03-22T13:02:17.531Z,9.03
2023-03-22T13:04:57.617Z,5.90
2023-03-22T13:07:35.530Z,5.67
2023-03-22T13:10:29.586Z,8.90
2023-03-22T13:13:23.446Z,7.50
2023-03-22T13:16:10.912Z,7.57
2023-03-22T13:18:42.584Z,7.63
2023-03-22T13:21:26.799Z,8.07
2023-03-22T13:24:04.533Z,7.60
2023-03-22T13:26:51.587Z,7.20
2023-03-22T13:29:25.949Z,9.80
2023-03-22T13:32:00.333Z,10.40
2023-03-22T13:34:48.257Z,7.90
2023-03-22T13:37:36.998Z,8.77
2023-03-22T13:40:36.317Z,7.43
2023-03-22T13:43:19.658Z,8.87
2023-03-22T13:46:17.421Z,6.60
2023-03-22T13:48:49.740Z,9.30
2023-03-22T13:51:27.946Z,8.20
2023-03-22T13:54:16.281Z,9.67
2023-03-22T13:56:56.840Z,9.03
2023-03-22T13:59:29.631Z,9.80
2023-03-22T14:02:16.285Z,7.47
2023-03-22T14:04:55.921Z,11.03
2023-03-22T14:07:33.525Z,8.83
2023-03-22T14:10:12.770Z,10.00
2023-03-22T14:12:46.902Z,6.97
2023-03-22T14:15:41.147Z,12.97
2023-03-22T14:18:17.867Z,7.13
2023-03-22T14:20:54.947Z,12.53
